Nearby METAR Reports

 

KRYN - Tucson/Ryan Fld, Arizona, USA
Distance from station: SSW 16mi, 26km
Updated: Mon, 14-Jun-2021 7:45pm MST
NOT Current
Clear
Clear
 Wind from NW
Wind: NW 7 mph , 11 km/h
Temperature: 100°F , 38°C
Dew Point: 23°F , -5°C
Humidity: 6%
Barometer: 29.86 inHg , 1011.2 hPa
Clouds: Clear
Visibility: 10 miles , 16 km
2021/06/15 02:45 KRYN 150245Z 32006KT 10SM CLR 38/M05 A2986 RMK LAST
KTUS - Tucson, Arizona, USA
Distance from station: SSE 18mi, 28km
Updated: Mon, 14-Jun-2021 8:53pm MST
Clear
Clear
 Wind from NW
Wind: NW 6 mph , 9 km/h
Temperature: 102°F , 39°C
Dew Point: 25°F , -4°C
Humidity: 6%
Barometer: 29.92 inHg , 1013.2 hPa
Clouds: Clear
Visibility: 10 miles , 16 km
2021/06/15 03:53 KTUS 150353Z 31005KT 10SM CLR 39/M04 A2992 RMK AO2 SLP071 T03891044
 
KDMA - Davis/Tucson, Arizona, USA
Distance from station: SE 18mi, 29km
Updated: Mon, 14-Jun-2021 8:58pm MST
Few Clouds
Few Clouds
 Wind from W
Wind: W 14 mph , 22 km/h
Temperature: 100°F , 38°C
Dew Point: 25°F , -4°C
Humidity: 7%
Barometer: 29.88 inHg , 1011.9 hPa
Clouds: Few Clouds
Visibility: 10 miles , 16 km
Cloud details: Few Clouds 21000 ft
2021/06/15 03:58 KDMA 150358Z AUTO 26012KT 10SM FEW210 38/M04 A2988 RMK AO2 PK WND 01043/25 DZB26E35 SLP063 P0006 T03781039 $
KCGZ - Casa Granda, Arizona, USA
Distance from station: NW 57mi, 92km
Updated: Mon, 14-Jun-2021 8:56pm MST
Clear
Clear
 Wind from W
Wind: W 8 mph , 13 km/h
Temperature: 99°F , 37°C
Dew Point: 32°F , 0°C
Humidity: 10%
Barometer: 29.78 inHg , 1008.5 hPa
Clouds: Clear
Visibility: 10 miles , 16 km
2021/06/15 03:56 KCGZ 150356Z AUTO 28007KT 10SM CLR 37/00 A2978 RMK AO2 SLP063 T03670000
 
KALK - Pioneer Airfield, Arizona, USA
Distance from station: SE 65mi, 104km
Updated: Mon, 14-Jun-2021 8:56pm MST
Clear
Clear
 Wind from W
Wind: W 12 mph , 19 km/h
Temperature: 88°F , 31°C
Dew Point: 32°F , 0°C
Humidity: 13%
Barometer: 30.09 inHg , 1019 hPa
Clouds: Clear
Visibility: 10 miles , 16 km
2021/06/15 03:56 KALK 150356Z AUTO 28010KT 10SM CLR 31/00 A3009 RMK AO2 SLP078 T03110000
KOLS - Nogales, Arizona, USA
Distance from station: S 67mi, 108km
Updated: Mon, 14-Jun-2021 8:54pm MST
Clear
Clear
 Wind from WNW
Wind: WNW 9 mph , 15 km/h, Gust: 17 mph , 28 km/h
Temperature: 93°F , 34°C
Dew Point: 46°F , 8°C
Humidity: 20%
Barometer: 30.00 inHg , 1015.9 hPa
Clouds: Clear
Visibility: 10 miles , 16 km
2021/06/15 03:54 KOLS 150354Z AUTO 30008G15KT 10SM CLR 34/08 A3000 RMK AO2 SLP071 T03390078
 
KFHU - Fort Huachuca, Arizona, USA
Distance from station: SE 69mi, 110km
Updated: Mon, 14-Jun-2021 8:58pm MST
Mostly cloudy
Mostly cloudy
 Wind from W
Wind: W 13 mph , 20 km/h
Temperature: 90°F , 32°C
Dew Point: 30°F , -1°C
Humidity: 12%
Barometer: 30.08 inHg , 1018.6 hPa
Clouds: Mostly cloudy
Visibility: 10 miles , 16 km
Cloud details: Mostly cloudy 16000 ft
2021/06/15 03:58 KFHU 150358Z AUTO 28011KT 10SM BKN160 32/M01 A3008 RMK AO2 SLP093 T03191011
KIWA - Chandler/Mesa, Arizona, USA
Distance from station: NNW 73mi, 117km
Updated: Mon, 14-Jun-2021 8:50pm MST
Mostly cloudy
Mostly cloudy
 Wind from E
Wind: E 10 mph , 17 km/h
Temperature: 93°F , 34°C
Dew Point: 36°F , 2°C
Humidity: 13%
Barometer: 29.78 inHg , 1008.5 hPa
Clouds: Mostly cloudy
Visibility: 10 miles , 16 km
Cloud details: Mostly cloudy 20000 ft
2021/06/15 03:50 KIWA 150350Z 10009KT 10SM BKN200 34/02 A2978